Terminal Aerodrome Forecast
Issued by NWS Los Angeles, CA

Home | Current Version | Previous Version | Text Only | Print | Product List | Glossary On
Versions: 1 2 3 4 5 6 7 8 9 10 11 12 13 14 15 16 17 18
000
FTUS46 KLOX 212300
TAFSMX
TAF
KSMX 212336Z 2200/2224 01012KT P6SM FEW040 BKN200
     FM220400 35015G22KT P6SM SCT020 SCT200
     FM221500 34012KT 6SM HZ SCT200
     FM221900 32016G24KT P6SM SCT250=

USA.gov is the U.S. government's official web portal to all federal, state and local government web resources and services.